createdAt,value
2023-03-06T00:00:57.910Z,24.90
2023-03-06T00:03:28.014Z,33.83
2023-03-06T00:05:57.609Z,20.42
2023-03-06T00:08:26.944Z,21.30
2023-03-06T00:10:54.573Z,24.75
2023-03-06T00:13:21.911Z,27.08
2023-03-06T00:15:49.417Z,29.00
2023-03-06T00:18:16.695Z,25.45
2023-03-06T00:20:44.992Z,30.73
2023-03-06T00:23:12.825Z,22.25
2023-03-06T00:25:46.226Z,36.25
2023-03-06T00:28:15.918Z,37.13
2023-03-06T00:30:46.087Z,39.15
2023-03-06T00:33:13.462Z,21.27
2023-03-06T00:35:41.657Z,28.52
2023-03-06T00:38:11.784Z,25.33
2023-03-06T00:40:38.889Z,25.00
2023-03-06T00:43:05.923Z,21.25
2023-03-06T00:45:33.091Z,23.65
2023-03-06T00:48:00.128Z,26.20
2023-03-06T00:50:27.454Z,18.88
2023-03-06T00:52:54.596Z,37.95
2023-03-06T00:55:21.735Z,14.80
2023-03-06T00:57:49.112Z,25.17
2023-03-06T01:00:17.345Z,17.30
2023-03-06T01:02:44.551Z,23.83
2023-03-06T01:05:14.391Z,27.27
2023-03-06T01:07:41.470Z,25.67
2023-03-06T01:10:09.525Z,18.70
2023-03-06T01:12:36.555Z,27.05
2023-03-06T01:15:05.145Z,19.38
2023-03-06T01:17:32.290Z,15.68
2023-03-06T01:19:59.460Z,22.98
2023-03-06T01:22:26.526Z,14.80
2023-03-06T01:24:53.536Z,24.70
2023-03-06T01:27:20.530Z,16.55
2023-03-06T01:29:47.544Z,73.00
2023-03-06T01:32:14.628Z,27.38
2023-03-06T01:34:41.710Z,24.42
2023-03-06T01:37:08.900Z,15.43
2023-03-06T01:39:35.967Z,26.83
2023-03-06T01:42:03.038Z,19.73
2023-03-06T01:44:30.236Z,18.33
2023-03-06T01:46:57.370Z,22.30
2023-03-06T01:49:40.216Z,20.33
2023-03-06T01:52:15.911Z,22.48
2023-03-06T01:54:49.669Z,26.60
2023-03-06T01:57:24.873Z,16.17
2023-03-06T02:00:18.214Z,28.70
2023-03-06T02:02:55.019Z,18.98
2023-03-06T02:05:22.298Z,27.85
2023-03-06T02:07:51.247Z,26.02
2023-03-06T02:10:19.611Z,24.92
2023-03-06T02:12:48.603Z,31.85
2023-03-06T02:15:35.613Z,20.60
2023-03-06T02:18:02.660Z,30.05
2023-03-06T02:20:40.257Z,24.90
2023-03-06T02:23:47.349Z,26.27
2023-03-06T02:26:15.282Z,27.95
2023-03-06T02:28:42.602Z,22.90
2023-03-06T02:31:29.119Z,19.42
2023-03-06T02:34:14.102Z,30.40
2023-03-06T02:36:49.116Z,18.27
2023-03-06T02:39:19.075Z,23.52
2023-03-06T02:41:46.087Z,20.77
2023-03-06T02:44:13.129Z,24.42
2023-03-06T02:46:40.075Z,32.55
2023-03-06T02:49:07.051Z,19.83
2023-03-06T02:51:34.457Z,16.15
2023-03-06T02:54:01.531Z,24.98
2023-03-06T02:56:28.621Z,23.00
2023-03-06T02:58:55.589Z,22.70
2023-03-06T03:01:23.188Z,22.05
2023-03-06T03:03:50.213Z,25.17
2023-03-06T03:06:17.256Z,27.13
2023-03-06T03:08:44.276Z,19.88
2023-03-06T03:11:12.330Z,14.20
2023-03-06T03:13:39.416Z,23.35
2023-03-06T03:16:16.429Z,26.55
2023-03-06T03:18:45.196Z,22.80
2023-03-06T03:21:14.526Z,15.25
2023-03-06T03:23:41.628Z,22.00
2023-03-06T03:26:12.329Z,18.13
2023-03-06T03:28:39.482Z,24.50
2023-03-06T03:31:09.732Z,23.73
2023-03-06T03:33:37.031Z,19.33
2023-03-06T03:36:07.181Z,18.00
2023-03-06T03:38:34.797Z,33.58
2023-03-06T03:41:02.533Z,25.92
2023-03-06T03:43:29.632Z,20.08
2023-03-06T03:45:56.568Z,24.80
2023-03-06T03:48:23.725Z,19.02
2023-03-06T03:50:50.765Z,30.92
2023-03-06T03:53:17.821Z,23.05
2023-03-06T03:55:48.323Z,22.85
2023-03-06T03:58:15.742Z,21.02
2023-03-06T04:00:42.728Z,34.20
2023-03-06T04:03:09.807Z,23.75
2023-03-06T04:05:36.824Z,16.23
2023-03-06T04:08:04.375Z,26.77
2023-03-06T04:10:31.823Z,17.40
2023-03-06T04:12:58.918Z,22.00
2023-03-06T04:15:26.348Z,44.35
2023-03-06T04:17:53.357Z,40.45
2023-03-06T04:20:20.559Z,20.35
2023-03-06T04:22:47.666Z,26.85
2023-03-06T04:25:14.739Z,17.08
2023-03-06T04:27:41.715Z,27.13
2023-03-06T04:30:09.879Z,63.83
2023-03-06T04:32:36.973Z,28.35
2023-03-06T04:35:04.441Z,23.15
2023-03-06T04:37:31.521Z,29.08
2023-03-06T04:39:58.553Z,24.58
2023-03-06T04:42:25.727Z,17.58
2023-03-06T04:44:52.747Z,38.10
2023-03-06T04:47:20.363Z,38.45
2023-03-06T04:49:47.497Z,29.33
2023-03-06T04:52:14.498Z,21.02
2023-03-06T04:54:41.507Z,26.30
2023-03-06T04:57:08.820Z,25.08
2023-03-06T04:59:37.536Z,27.70
2023-03-06T05:02:06.085Z,22.88
2023-03-06T05:04:33.064Z,30.95
2023-03-06T05:07:00.028Z,21.03
2023-03-06T05:09:27.027Z,32.15
2023-03-06T05:11:54.042Z,25.58
2023-03-06T05:14:21.273Z,27.38
2023-03-06T05:16:48.521Z,30.95
2023-03-06T05:19:15.759Z,24.23
2023-03-06T05:21:42.839Z,19.85
2023-03-06T05:24:10.657Z,26.08
2023-03-06T05:26:37.598Z,19.08
2023-03-06T05:29:04.588Z,21.92
2023-03-06T05:31:31.820Z,17.65
2023-03-06T05:33:59.187Z,32.13
2023-03-06T05:36:26.425Z,34.95
2023-03-06T05:38:53.741Z,31.33
2023-03-06T05:41:21.068Z,20.80
2023-03-06T05:43:48.305Z,20.08
2023-03-06T05:46:15.433Z,28.13
2023-03-06T05:48:42.563Z,16.23
2023-03-06T05:51:11.825Z,21.55
2023-03-06T05:53:38.838Z,19.42
2023-03-06T05:56:13.622Z,24.80
2023-03-06T05:58:40.771Z,17.13
2023-03-06T06:01:16.972Z,28.65
2023-03-06T06:03:44.710Z,24.75
2023-03-06T06:06:14.366Z,18.55
2023-03-06T06:08:42.076Z,17.85
2023-03-06T06:11:11.924Z,19.58
2023-03-06T06:13:39.883Z,25.90
2023-03-06T06:16:12.779Z,22.75
2023-03-06T06:18:41.240Z,18.52
2023-03-06T06:21:11.518Z,18.27
2023-03-06T06:23:38.629Z,26.65
2023-03-06T06:26:07.930Z,27.17
2023-03-06T06:28:35.383Z,27.05
2023-03-06T06:31:12.324Z,27.20
2023-03-06T06:33:41.155Z,18.10
2023-03-06T06:36:21.837Z,27.77
2023-03-06T06:38:50.149Z,27.17
2023-03-06T06:44:10.552Z,27.50
2023-03-06T06:49:24.932Z,24.23
2023-03-06T06:51:51.883Z,30.40
2023-03-06T06:54:20.191Z,23.65
2023-03-06T06:56:47.287Z,19.10
2023-03-06T06:59:17.099Z,24.63
2023-03-06T07:01:44.782Z,23.25
2023-03-06T07:04:15.242Z,20.73
2023-03-06T07:06:42.907Z,20.70
2023-03-06T07:09:10.454Z,22.08
2023-03-06T07:11:39.043Z,24.45
2023-03-06T07:14:06.254Z,29.20
2023-03-06T07:16:33.364Z,23.85
2023-03-06T07:19:00.333Z,24.27
2023-03-06T07:21:27.325Z,18.92
2023-03-06T07:23:57.292Z,19.63
2023-03-06T07:26:25.936Z,29.63
2023-03-06T07:28:53.839Z,20.30
2023-03-06T07:31:24.713Z,22.48
2023-03-06T07:33:53.654Z,20.90
2023-03-06T07:36:22.424Z,16.88
2023-03-06T07:38:49.573Z,17.83
2023-03-06T07:41:17.269Z,19.08
2023-03-06T07:43:46.333Z,23.88
2023-03-06T07:46:14.983Z,17.20
2023-03-06T07:48:42.967Z,26.65
2023-03-06T07:51:16.486Z,25.92
2023-03-06T07:53:44.318Z,18.23
2023-03-06T07:56:12.763Z,20.48
2023-03-06T07:58:43.462Z,17.70
2023-03-06T08:01:15.510Z,18.48
2023-03-06T08:03:42.940Z,22.95
2023-03-06T08:06:19.049Z,26.00
2023-03-06T08:08:48.365Z,21.15
2023-03-06T08:11:18.274Z,20.13
2023-03-06T08:13:45.628Z,21.48
2023-03-06T08:16:13.003Z,20.80
2023-03-06T08:18:40.120Z,18.00
2023-03-06T08:21:14.138Z,29.45
2023-03-06T08:23:41.857Z,24.95
2023-03-06T08:26:13.744Z,27.35
2023-03-06T08:28:40.895Z,16.38
2023-03-06T08:31:17.974Z,21.58
2023-03-06T08:33:44.921Z,21.42
2023-03-06T08:36:11.896Z,21.45
2023-03-06T08:38:38.909Z,30.23
2023-03-06T08:41:05.876Z,26.25
2023-03-06T08:43:33.825Z,31.83
2023-03-06T08:46:01.007Z,25.75
2023-03-06T08:48:28.628Z,19.08
2023-03-06T08:50:56.020Z,30.75
2023-03-06T08:53:33.442Z,27.33
2023-03-06T08:56:15.691Z,31.17
2023-03-06T08:58:42.759Z,48.65
2023-03-06T09:01:19.384Z,31.58
2023-03-06T09:03:47.267Z,25.05
2023-03-06T09:06:15.336Z,25.90
2023-03-06T09:08:44.572Z,32.70
2023-03-06T09:11:14.457Z,21.25
2023-03-06T09:13:42.927Z,25.08
2023-03-06T09:16:11.732Z,28.20
2023-03-06T09:18:40.096Z,29.45
2023-03-06T09:21:09.319Z,24.83
2023-03-06T09:23:39.554Z,18.13
2023-03-06T09:26:07.941Z,28.50
2023-03-06T09:28:49.195Z,47.83
2023-03-06T09:31:27.076Z,18.40
2023-03-06T09:33:54.155Z,18.83
2023-03-06T09:36:27.361Z,21.80
2023-03-06T09:39:09.508Z,17.95
2023-03-06T09:41:47.875Z,21.33
2023-03-06T09:44:23.666Z,15.93
2023-03-06T09:47:31.860Z,44.40
2023-03-06T09:50:13.910Z,24.10
2023-03-06T09:52:55.486Z,24.70
2023-03-06T09:55:27.323Z,36.22
2023-03-06T09:58:16.066Z,27.92
2023-03-06T10:01:05.155Z,20.95
2023-03-06T10:04:03.344Z,23.27
2023-03-06T10:06:50.898Z,17.70
2023-03-06T10:09:26.541Z,16.90
2023-03-06T10:11:57.457Z,18.90
2023-03-06T10:14:44.670Z,20.23
2023-03-06T10:17:19.616Z,21.95
2023-03-06T10:19:47.800Z,19.77
2023-03-06T10:22:33.607Z,32.13
2023-03-06T10:25:22.232Z,21.63
2023-03-06T10:27:58.766Z,22.05
2023-03-06T10:30:53.228Z,19.63
2023-03-06T10:33:58.529Z,12.45
2023-03-06T10:36:28.761Z,14.63
2023-03-06T10:38:58.474Z,17.15
2023-03-06T10:41:36.025Z,18.23
2023-03-06T10:44:06.755Z,34.13
2023-03-06T10:46:42.475Z,20.20
2023-03-06T10:49:37.874Z,27.35
2023-03-06T10:52:22.312Z,24.65
2023-03-06T10:54:49.454Z,28.88
2023-03-06T10:57:31.801Z,31.95
2023-03-06T11:00:24.455Z,16.80
2023-03-06T11:03:24.045Z,21.90
2023-03-06T11:06:16.592Z,26.17
2023-03-06T11:08:44.708Z,31.58
2023-03-06T11:11:18.524Z,26.05
2023-03-06T11:13:58.968Z,19.40
2023-03-06T11:16:33.180Z,30.45
2023-03-06T11:19:08.575Z,30.67
2023-03-06T11:21:39.966Z,20.48
2023-03-06T11:24:17.636Z,35.05
2023-03-06T11:26:54.692Z,32.53
2023-03-06T11:29:46.801Z,26.23
2023-03-06T11:32:58.942Z,41.08
2023-03-06T11:35:36.169Z,26.83
2023-03-06T11:38:11.416Z,40.55
2023-03-06T11:40:54.729Z,28.77
2023-03-06T11:44:16.448Z,27.02
2023-03-06T11:47:23.956Z,27.25
2023-03-06T11:50:26.427Z,35.83
2023-03-06T11:53:01.603Z,31.10
2023-03-06T11:55:51.575Z,25.92
2023-03-06T11:59:03.749Z,30.02
2023-03-06T12:01:54.724Z,30.38
2023-03-06T12:04:57.974Z,35.55
2023-03-06T12:08:02.006Z,29.63
2023-03-06T12:10:51.922Z,28.15
2023-03-06T12:14:02.156Z,41.08
2023-03-06T12:16:43.510Z,31.95
2023-03-06T12:19:45.670Z,78.20
2023-03-06T12:22:58.077Z,46.45
2023-03-06T12:25:38.134Z,42.53
2023-03-06T12:28:27.972Z,51.88
2023-03-06T12:31:19.779Z,37.65
2023-03-06T12:34:26.355Z,47.70
2023-03-06T12:37:17.929Z,43.53
2023-03-06T12:40:07.008Z,43.45
2023-03-06T12:43:18.705Z,87.80
2023-03-06T12:45:46.745Z,60.30
2023-03-06T12:48:23.637Z,34.50
2023-03-06T12:50:51.445Z,42.08
2023-03-06T12:53:38.078Z,53.80
2023-03-06T12:56:06.060Z,68.90
2023-03-06T12:58:48.225Z,48.20
2023-03-06T13:02:00.839Z,56.30
2023-03-06T13:04:56.694Z,72.28
2023-03-06T13:08:00.700Z,50.72
2023-03-06T13:10:36.885Z,34.30
2023-03-06T13:13:32.884Z,34.70
2023-03-06T13:16:18.929Z,89.18
2023-03-06T13:18:56.533Z,73.57
2023-03-06T13:21:43.432Z,61.28
2023-03-06T13:24:34.735Z,58.13
2023-03-06T13:27:11.926Z,73.50
2023-03-06T13:29:39.656Z,65.05
2023-03-06T13:32:20.066Z,68.97
2023-03-06T13:34:50.202Z,57.70
2023-03-06T13:37:17.435Z,43.25
2023-03-06T13:39:59.100Z,46.97
2023-03-06T13:42:56.868Z,41.83
2023-03-06T13:45:26.394Z,43.50
2023-03-06T13:50:48.988Z,94.82
2023-03-06T13:53:57.127Z,49.67
2023-03-06T13:56:36.432Z,65.97
2023-03-06T13:59:22.387Z,71.63
2023-03-06T14:02:23.922Z,47.72
2023-03-06T14:04:58.622Z,56.08
2023-03-06T14:07:29.656Z,42.38
2023-03-06T14:10:19.673Z,65.72
2023-03-06T14:12:49.429Z,42.65
2023-03-06T14:15:30.777Z,44.22
2023-03-06T14:18:02.164Z,41.45
2023-03-06T14:20:58.212Z,47.97
2023-03-06T14:23:42.711Z,25.15
2023-03-06T14:26:23.747Z,28.40
2023-03-06T14:28:59.296Z,40.33
2023-03-06T14:31:34.304Z,44.88
2023-03-06T14:34:09.338Z,50.40
2023-03-06T14:36:49.620Z,55.63
2023-03-06T14:39:41.239Z,88.80
2023-03-06T14:42:28.061Z,89.00
2023-03-06T14:45:16.069Z,81.10
2023-03-06T14:47:44.611Z,74.43
2023-03-06T14:50:24.902Z,64.63
2023-03-06T14:53:22.590Z,46.90
2023-03-06T14:55:53.379Z,43.38
2023-03-06T14:58:50.376Z,73.95
2023-03-06T15:01:41.427Z,43.35
2023-03-06T15:04:41.515Z,55.45
2023-03-06T15:07:19.609Z,63.60
2023-03-06T15:09:51.153Z,36.00
2023-03-06T15:12:21.497Z,46.38
2023-03-06T15:14:57.316Z,42.40
2023-03-06T15:17:28.997Z,50.67
2023-03-06T15:19:59.652Z,34.13
2023-03-06T15:22:42.564Z,44.15
2023-03-06T15:25:30.248Z,38.17
2023-03-06T15:28:04.740Z,48.15
2023-03-06T15:30:35.326Z,39.42
2023-03-06T15:33:20.249Z,37.47
2023-03-06T15:36:05.690Z,47.92
2023-03-06T15:38:39.674Z,55.85
2023-03-06T15:41:21.645Z,43.45
2023-03-06T15:43:48.832Z,55.55
2023-03-06T15:46:15.939Z,68.88
2023-03-06T15:48:54.507Z,36.95
2023-03-06T15:51:21.679Z,29.55
2023-03-06T15:53:49.356Z,30.98
2023-03-06T15:56:25.104Z,21.48
2023-03-06T15:58:52.213Z,27.85
2023-03-06T16:01:19.273Z,26.92
2023-03-06T16:03:46.455Z,30.52
2023-03-06T16:06:22.580Z,40.17
2023-03-06T16:08:49.735Z,34.30
2023-03-06T16:11:41.852Z,65.35
2023-03-06T16:14:23.800Z,43.88
2023-03-06T16:16:57.065Z,57.67
2023-03-06T16:19:27.640Z,64.57
2023-03-06T16:21:56.410Z,58.83
2023-03-06T16:24:24.952Z,48.80
2023-03-06T16:26:55.227Z,59.95
2023-03-06T16:29:27.900Z,62.70
2023-03-06T16:31:57.681Z,63.92
2023-03-06T16:34:25.961Z,66.05
2023-03-06T16:36:53.299Z,37.30
2023-03-06T16:39:23.973Z,46.65
2023-03-06T16:41:51.609Z,58.30
2023-03-06T16:44:19.347Z,33.05
2023-03-06T16:46:49.291Z,52.08
2023-03-06T16:49:24.622Z,39.15
2023-03-06T16:51:53.268Z,37.80
2023-03-06T16:54:21.916Z,47.63
2023-03-06T16:56:49.396Z,53.30
2023-03-06T16:59:16.686Z,36.53
2023-03-06T17:01:43.834Z,55.13
2023-03-06T17:04:11.239Z,42.70
2023-03-06T17:06:39.153Z,40.97
2023-03-06T17:09:06.769Z,92.88
2023-03-06T17:11:38.828Z,71.50
2023-03-06T17:14:07.153Z,51.45
2023-03-06T17:16:36.635Z,58.47
2023-03-06T17:19:03.790Z,55.83
2023-03-06T17:21:30.957Z,58.08
2023-03-06T17:23:58.065Z,69.00
2023-03-06T17:26:25.355Z,71.75
2023-03-06T17:28:52.435Z,45.33
2023-03-06T17:31:26.759Z,60.70
2023-03-06T17:34:01.893Z,40.65
2023-03-06T17:36:30.987Z,55.75
2023-03-06T17:39:00.920Z,73.60
2023-03-06T17:41:28.871Z,57.20
2023-03-06T17:43:58.365Z,56.65
2023-03-06T17:46:26.516Z,96.35
2023-03-06T17:48:54.922Z,72.18
2023-03-06T17:51:22.044Z,80.78
2023-03-06T17:53:49.534Z,73.72
2023-03-06T17:56:16.633Z,77.78
2023-03-06T17:58:43.887Z,39.50
2023-03-06T18:01:13.754Z,67.32
2023-03-06T18:03:45.972Z,71.07
2023-03-06T18:06:13.858Z,52.60
2023-03-06T18:08:41.189Z,66.00
2023-03-06T18:11:10.309Z,36.90
2023-03-06T18:13:42.670Z,49.20
2023-03-06T18:16:12.238Z,51.97
2023-03-06T18:18:39.573Z,54.40
2023-03-06T18:21:11.113Z,61.55
2023-03-06T18:23:39.623Z,63.40
2023-03-06T18:26:18.857Z,58.80
2023-03-06T18:29:05.686Z,57.40
2023-03-06T18:31:38.863Z,67.80
2023-03-06T18:34:13.776Z,53.70
2023-03-06T18:36:43.738Z,57.97
2023-03-06T18:39:13.485Z,65.22
2023-03-06T18:41:41.568Z,66.50
2023-03-06T18:44:08.895Z,74.30
2023-03-06T18:46:38.460Z,84.68
2023-03-06T18:49:06.375Z,61.60
2023-03-06T18:51:34.113Z,63.60
2023-03-06T18:54:03.964Z,70.65
2023-03-06T18:56:32.298Z,94.75
2023-03-06T18:59:04.581Z,86.55
2023-03-06T19:01:33.187Z,81.22
2023-03-06T19:04:05.052Z,100.00
2023-03-06T19:06:32.492Z,98.70
2023-03-06T19:09:01.855Z,72.82
2023-03-06T19:11:29.184Z,76.68
2023-03-06T19:13:56.638Z,97.25
2023-03-06T19:16:27.479Z,69.82
2023-03-06T19:18:58.197Z,83.18
2023-03-06T19:21:28.092Z,181.70
2023-03-06T19:23:56.213Z,83.90
2023-03-06T19:26:23.892Z,78.07
2023-03-06T19:28:52.381Z,78.38
2023-03-06T19:31:26.589Z,73.75
2023-03-06T19:33:55.885Z,71.75
2023-03-06T19:36:27.560Z,80.78
2023-03-06T19:38:56.993Z,83.55
2023-03-06T19:41:24.354Z,60.90
2023-03-06T19:43:54.692Z,64.65
2023-03-06T19:46:23.311Z,93.28
2023-03-06T19:49:01.615Z,95.65
2023-03-06T19:51:29.316Z,69.20
2023-03-06T19:53:57.747Z,76.60
2023-03-06T19:56:29.282Z,60.40
2023-03-06T19:58:56.707Z,76.22
2023-03-06T20:01:26.078Z,78.18
2023-03-06T20:03:59.053Z,119.20
2023-03-06T20:06:29.959Z,124.15
2023-03-06T20:08:56.917Z,107.90
2023-03-06T20:11:29.873Z,85.40
2023-03-06T20:13:59.354Z,120.25
2023-03-06T20:16:28.283Z,82.82
2023-03-06T20:18:58.643Z,93.72
2023-03-06T20:21:27.793Z,69.63
2023-03-06T20:23:58.144Z,79.00
2023-03-06T20:26:28.521Z,74.63
2023-03-06T20:28:56.457Z,84.30
2023-03-06T20:31:28.104Z,71.45
2023-03-06T20:33:58.514Z,92.45
2023-03-06T20:36:34.185Z,98.03
2023-03-06T20:39:08.995Z,92.07
2023-03-06T20:41:36.284Z,118.45
2023-03-06T20:44:06.294Z,64.00
2023-03-06T20:46:34.309Z,75.97
2023-03-06T20:49:01.983Z,77.30
2023-03-06T20:51:32.321Z,78.57
2023-03-06T20:54:01.786Z,99.63
2023-03-06T20:56:32.643Z,79.25
2023-03-06T20:58:59.808Z,67.57
2023-03-06T21:01:34.321Z,78.22
2023-03-06T21:04:04.813Z,124.18
2023-03-06T21:06:32.692Z,130.35
2023-03-06T21:09:01.769Z,93.63
2023-03-06T21:11:29.587Z,88.45
2023-03-06T21:13:56.990Z,102.03
2023-03-06T21:16:26.824Z,96.50
2023-03-06T21:18:58.887Z,83.65
2023-03-06T21:21:31.552Z,97.72
2023-03-06T21:23:58.487Z,98.32
2023-03-06T21:26:29.896Z,99.90
2023-03-06T21:29:00.553Z,99.10
2023-03-06T21:31:28.676Z,92.15
2023-03-06T21:33:56.580Z,90.00
2023-03-06T21:36:23.540Z,92.85
2023-03-06T21:38:52.447Z,125.18
2023-03-06T21:41:25.540Z,107.00
2023-03-06T21:43:58.423Z,116.40
2023-03-06T21:46:26.104Z,109.03
2023-03-06T21:48:53.440Z,112.72
2023-03-06T21:51:23.690Z,125.80
2023-03-06T21:53:52.522Z,130.77
2023-03-06T21:56:22.599Z,155.98
2023-03-06T21:58:49.797Z,147.88
2023-03-06T22:01:21.813Z,136.63
2023-03-06T22:03:49.087Z,129.27
2023-03-06T22:06:24.017Z,143.68
2023-03-06T22:08:52.037Z,126.60
2023-03-06T22:11:22.076Z,116.72
2023-03-06T22:13:49.570Z,132.40
2023-03-06T22:16:21.145Z,119.20
2023-03-06T22:18:50.814Z,137.82
2023-03-06T22:21:20.607Z,124.55
2023-03-06T22:23:53.825Z,153.38
2023-03-06T22:26:21.160Z,133.50
2023-03-06T22:28:48.255Z,121.15
2023-03-06T22:31:24.187Z,123.38
2023-03-06T22:33:56.458Z,123.78
2023-03-06T22:36:24.807Z,112.22
2023-03-06T22:39:02.810Z,115.55
2023-03-06T22:41:30.773Z,139.15
2023-03-06T22:44:00.553Z,134.35
2023-03-06T22:46:28.648Z,136.27
2023-03-06T22:49:00.517Z,134.13
2023-03-06T22:51:28.815Z,135.43
2023-03-06T22:53:55.797Z,153.85
2023-03-06T22:56:23.280Z,129.35
2023-03-06T22:58:50.398Z,147.63
2023-03-06T23:01:21.561Z,137.18
2023-03-06T23:03:52.300Z,150.20
2023-03-06T23:06:36.211Z,138.40
2023-03-06T23:09:16.356Z,135.75
2023-03-06T23:11:43.383Z,127.95
2023-03-06T23:14:14.707Z,129.15
2023-03-06T23:16:41.778Z,124.18
2023-03-06T23:19:08.930Z,119.47
2023-03-06T23:21:35.998Z,134.25
2023-03-06T23:24:03.184Z,134.85
2023-03-06T23:26:32.072Z,109.53
2023-03-06T23:28:59.053Z,123.72
2023-03-06T23:31:29.027Z,121.63
2023-03-06T23:34:03.281Z,106.43
2023-03-06T23:36:31.430Z,125.50
2023-03-06T23:38:58.862Z,126.93
2023-03-06T23:41:26.864Z,113.32
2023-03-06T23:43:55.264Z,121.88
2023-03-06T23:46:22.833Z,114.75
2023-03-06T23:48:49.924Z,115.53
2023-03-06T23:51:20.874Z,94.93
2023-03-06T23:53:56.623Z,103.53
2023-03-06T23:56:25.896Z,80.53
2023-03-06T23:58:53.451Z,107.43
